Terminal Aerodrome Forecast
Issued by NWS

Home | Current Version | Previous Version | Graphics & Text | Print | Product List | Glossary On
Versions: 1 2 3 4 5 6 7 8 9 10 11 12 13 14
000
FTUS43 KGRB 121100
TAFAUW
TAF
KAUW 121120Z 1212/1312 VRB03KT P6SM SCT050 BKN100
     FM121500 30004KT P6SM -RA BKN040 OVC070
     FM122100 27004KT 5SM -RA BR FEW008 BKN025 OVC040
     FM130400 29003KT P6SM VCSH SCT025 BKN040
     FM130900 30003KT P6SM SCT040 SCT090=

USA.gov is the U.S. government's official web portal to all federal, state and local government web resources and services.